• Join FlightAware (Why Join?)
  • Login
  • US Flag 
11:28AM EDT


 

Airport Tracker/Info


-or-


 

Live Flight TrackerFlight Track Log ✈ SWA1496 ✈ 20-Apr-2013 ✈ KSAN - KELP

Flight Track Log - Related Links

Times and Time Zones

All times are in EDT time to prevent confusion due to time zone crossing. See the SWA1496 flight status page for this flight to view local times or setup timezone preferences in your user account.

Time Position Orientation Groundspeed Altitude Reporting Facility
EDT Latitude Longitude Course Direction KTS MPH feet Rate Location/Type
05:48PM 32.7536 -117.2739 226° Southwest 205 236 2,800  Level Los Angeles Center
05:49PM 32.7081 -117.3300 226° Southwest 240 276 7,100 3,120 Climbing Los Angeles Center
05:50PM 32.6642 -117.2806 137° Southeast 272 313 9,200 2,520 Climbing Los Angeles Center
05:51PM 32.6381 -117.1586 104° East 320 368 12,400 3,120 Climbing Los Angeles Center
05:52PM 32.6194 -117.0442 101° East 347 399 15,700 3,000 Climbing Los Angeles Center
05:53PM 32.6153 -116.9222 92° East 366 421 18,600 2,700 Climbing Los Angeles Center
05:54PM 32.6281 -116.7969 83° East 382 440 21,400 2,700 Climbing Los Angeles Center
05:55PM 32.6439 -116.6372 83° East 404 465 24,300 2,460 Climbing Los Angeles Center
05:56PM 32.6575 -116.4986 83° East 422 486 26,500 1,980 Climbing Los Angeles Center
05:57PM 32.6700 -116.3550 84° East 443 510 28,400 1,740 Climbing Los Angeles Center
05:58PM 32.6847 -116.2056 83° East 461 531 30,100 1,560 Climbing Los Angeles Center
05:59PM 32.7025 -116.0192 83° East 479 551 31,700 1,380 Climbing Los Angeles Center
06:00PM 32.7178 -115.8561 84° East 497 572 33,000 1,320 Climbing Los Angeles Center
06:01PM 32.7331 -115.6889 84° East 508 585 34,500 1,320 Climbing Los Angeles Center
06:02PM 32.7483 -115.5206 84° East 513 590 35,800 1,260 Climbing Los Angeles Center
06:03PM 32.7542 -115.3475 88° East 524 603 37,200 1,200 Climbing Los Angeles Center
06:04PM 32.7586 -115.1758 88° East 521 600 38,400 840 Climbing Los Angeles Center
06:05PM 32.7628 -115.0364 88° East 525 604 39,000 240 Climbing Los Angeles Center
06:06PM 32.7672 -114.7894 89° East 534 615 39,000  Level Los Angeles Center
06:07PM 32.7717 -114.6111 88° East 539 620 39,000  Level Los Angeles Center
06:08PM 32.7731 -114.4294 89° East 544 626 39,000  Level Los Angeles Center
06:10PM 32.7753 -114.2486 89° East 547 629 39,000  Level Los Angeles Center
06:11PM 32.7775 -114.0306 89° East 548 631 39,000  Level Los Angeles Center
06:11PM 32.7808 -113.9436 87° East 551 634 39,000  Level Albuquerque Center
06:12PM 32.8072 -113.7653 80° East 548 631 39,000  Level Albuquerque Center
06:13PM 32.8328 -113.5847 80° East 551 634 39,000  Level Albuquerque Center
06:14PM 32.8569 -113.4053 81° East 550 633 39,000  Level Albuquerque Center
06:15PM 32.8822 -113.2258 80° East 548 631 39,000  Level Albuquerque Center
06:16PM 32.9064 -113.0447 81° East 549 632 39,000  Level Albuquerque Center
06:17PM 32.9311 -112.8644 81° East 549 632 39,000  Level Albuquerque Center
06:18PM 32.9511 -112.6467 84° East 548 631 39,000  Level Albuquerque Center
06:19PM 32.9325 -112.4656 97° East 549 632 39,000  Level Albuquerque Center
06:20PM 32.9119 -112.2836 98° East 553 636 39,000  Level Albuquerque Center
06:21PM 32.8894 -112.0886 98° East 559 643 39,000  Level Albuquerque Center
06:22PM 32.8686 -111.9089 98° East 556 640 39,000  Level Albuquerque Center
06:23PM 32.8467 -111.7267 98° East 558 642 39,000  Level Albuquerque Center
06:24PM 32.8244 -111.5442 98° East 561 646 39,000  Level Albuquerque Center
06:25PM 32.8022 -111.3617 98° East 561 646 39,000  Level Albuquerque Center
06:26PM 32.7789 -111.1789 99° East 562 647 39,000  Level Albuquerque Center
06:27PM 32.7561 -110.9953 98° East 564 649 39,000  Level Albuquerque Center
06:29PM 32.7272 -110.7758 99° East 564 649 39,000  Level Albuquerque Center
06:30PM 32.7047 -110.6033 99° East 562 647 39,000  Level Albuquerque Center
06:31PM 32.6806 -110.4203 99° East 566 651 39,000  Level Albuquerque Center
06:32PM 32.6575 -110.2383 99° East 565 650 39,000  Level Albuquerque Center
06:33PM 32.6269 -110.0197 99° East 567 652 39,000  Level Albuquerque Center
06:34PM 32.6017 -109.8372 99° East 567 652 39,000  Level Albuquerque Center
06:35PM 32.5764 -109.6533 99° East 571 657 39,000  Level Albuquerque Center
06:36PM 32.5492 -109.4700 100° East 575 662 39,000  Level Albuquerque Center
06:37PM 32.5233 -109.2869 99° East 574 661 39,000  Level Albuquerque Center
06:38PM 32.4983 -109.1061 99° East 569 655 39,000  Level Albuquerque Center
06:39PM 32.4669 -108.8889 100° East 569 655 39,000  Level Albuquerque Center
06:40PM 32.4408 -108.7078 100° East 569 655 39,000 -840 Level Albuquerque Center
06:41PM 32.4150 -108.5281 100° East 566 651 37,300 -1,500 Descending Albuquerque Center
06:42PM 32.3875 -108.3467 100° East 564 649 36,000 -1,740 Descending Albuquerque Center
06:43PM 32.3611 -108.1736 100° East 542 624 33,800 -2,220 Descending Albuquerque Center
06:44PM 32.3350 -108.0033 100° East 531 611 31,600 -2,640 Descending Albuquerque Center
06:45PM 32.3067 -107.8100 100° East 504 580 28,500 -2,880 Descending Albuquerque Center
06:46PM 32.2825 -107.6542 100° East 489 563 25,700 -2,640 Descending Albuquerque Center
06:47PM 32.2531 -107.5072 103° East 470 541 23,200 -2,280 Descending Albuquerque Center
06:48PM 32.2175 -107.3725 107° East 456 525 21,100 -1,980 Descending Albuquerque Center
06:49PM 32.1847 -107.2356 106° East 443 510 19,200 -2,040 Descending Albuquerque Center
06:50PM 32.1672 -107.1367 102° East 403 464 17,700 -1,980 Descending Albuquerque Center
06:50PM 32.1589 -107.1061 108° East 409 471 17,200 -1,980 Descending Albuquerque Center
06:51PM 32.1364 -107.0214 107° East 394 453 15,900 -1,980 Descending Albuquerque Center
06:51PM 32.1269 -106.9839 107° East 396 456 15,200 -1,920 Descending Albuquerque Center
06:52PM 32.1064 -106.8983 106° East 387 445 14,000 -2,400 Descending Albuquerque Center
06:52PM 32.0936 -106.8406 105° East 383 441 12,800 -2,100 Descending Albuquerque Center
06:53PM 32.0794 -106.7822 106° East 364 419 11,900 -1,680 Descending Albuquerque Center
06:53PM 32.0667 -106.7300 106° East 360 414 11,100 -1,500 Descending Albuquerque Center
06:54PM 32.0461 -106.6553 108° East 324 373 10,100 -1,140 Descending Albuquerque Center
06:54PM 32.0406 -106.6289 104° East 329 379 10,000 -840 Descending Albuquerque Center
06:55PM 32.0219 -106.5561 107° East 312 359 9,300 -840 Descending Albuquerque Center
06:55PM 32.0158 -106.5325 107° East 310 357 9,200 -420 Descending Albuquerque Center
06:56PM 31.9917 -106.4708 115° Southeast 273 314 8,900 -420 Descending Albuquerque Center
06:56PM 31.9811 -106.4578 134° Southeast 260 299 8,800 -1,140 Descending Albuquerque Center
06:57PM 31.9408 -106.4133 137° Southeast 242 278 7,800 -1,320 Descending Albuquerque Center
06:57PM 31.9306 -106.4008 134° Southeast 248 285 7,500 -840 Descending Albuquerque Center
06:58PM 31.8972 -106.3617 135° Southeast 210 242 7,000 -720 Descending Albuquerque Center
06:58PM 31.8894 -106.3506 130° Southeast 205 236 6,800 -1,500 Descending Albuquerque Center
06:59PM 31.8733 -106.3125 116° Southeast 163 188 5,500 -1,680 Descending Albuquerque Center
06:59PM 31.8636 -106.3092 164° South 174 200 5,100 -780 Descending Albuquerque Center
07:00PM 31.8453 -106.3347 230° Southwest 149 171 4,800 -840 Descending Albuquerque Center
07:00PM 31.8336 -106.3533 234° Southwest 146 168 4,300 -600 Descending Albuquerque Center
07:01PM 31.8108 -106.3853 230° Southwest 143 165 3,900 -420 Descending Albuquerque Center
07:03PM 31.8072 -106.3764 90° East  Level Estimated
07:10PM 31.8072 -106.3764 90° East  Level Estimated
07:11PM 31.8072 -106.3764 90° East  Level Estimated
07:12PM 31.8072 -106.3764 90° East  Level Estimated
07:13PM 31.8072 -106.3764 90° East  Level Estimated